sensor_id;sensor_type;location;lat;lon;timestamp;P1;durP1;ratioP1;P2;durP2;ratioP2
47089;SDS011;32840;52.516;13.294;2022-11-03T00:02:27;15.05;;;5.80;;
47089;SDS011;32840;52.516;13.294;2022-11-03T00:05:12;11.13;;;5.95;;
47089;SDS011;32840;52.516;13.294;2022-11-03T00:08:15;12.77;;;6.07;;
47089;SDS011;32840;52.516;13.294;2022-11-03T00:11:01;12.70;;;6.40;;
47089;SDS011;32840;52.516;13.294;2022-11-03T00:13:47;9.00;;;5.20;;
47089;SDS011;32840;52.516;13.294;2022-11-03T00:16:32;12.23;;;5.57;;
47089;SDS011;32840;52.516;13.294;2022-11-03T00:19:17;14.00;;;5.82;;
47089;SDS011;32840;52.516;13.294;2022-11-03T00:22:02;12.95;;;5.93;;
47089;SDS011;32840;52.516;13.294;2022-11-03T00:24:47;13.30;;;5.60;;
47089;SDS011;32840;52.516;13.294;2022-11-03T00:27:32;13.35;;;5.90;;
47089;SDS011;32840;52.516;13.294;2022-11-03T00:30:17;15.20;;;6.20;;
47089;SDS011;32840;52.516;13.294;2022-11-03T00:33:02;13.50;;;5.43;;
47089;SDS011;32840;52.516;13.294;2022-11-03T00:35:47;11.45;;;6.05;;
47089;SDS011;32840;52.516;13.294;2022-11-03T00:38:32;16.50;;;5.68;;
47089;SDS011;32840;52.516;13.294;2022-11-03T00:41:18;12.23;;;4.78;;
47089;SDS011;32840;52.516;13.294;2022-11-03T00:44:04;11.50;;;5.57;;
47089;SDS011;32840;52.516;13.294;2022-11-03T00:46:49;12.77;;;5.30;;
47089;SDS011;32840;52.516;13.294;2022-11-03T00:49:34;11.93;;;4.72;;
47089;SDS011;32840;52.516;13.294;2022-11-03T00:52:19;9.20;;;4.82;;
47089;SDS011;32840;52.516;13.294;2022-11-03T00:55:04;10.55;;;5.13;;
47089;SDS011;32840;52.516;13.294;2022-11-03T00:57:51;11.50;;;5.78;;
47089;SDS011;32840;52.516;13.294;2022-11-03T01:00:36;9.27;;;4.57;;
47089;SDS011;32840;52.516;13.294;2022-11-03T01:03:21;11.30;;;5.03;;
47089;SDS011;32840;52.516;13.294;2022-11-03T01:06:07;9.82;;;5.25;;
47089;SDS011;32840;52.516;13.294;2022-11-03T01:09:13;11.48;;;5.28;;
47089;SDS011;32840;52.516;13.294;2022-11-03T01:12:02;10.63;;;4.60;;
47089;SDS011;32840;52.516;13.294;2022-11-03T01:14:53;12.15;;;5.15;;
47089;SDS011;32840;52.516;13.294;2022-11-03T01:17:38;12.07;;;4.65;;
47089;SDS011;32840;52.516;13.294;2022-11-03T01:20:24;14.98;;;5.50;;
47089;SDS011;32840;52.516;13.294;2022-11-03T01:23:09;10.52;;;5.00;;
47089;SDS011;32840;52.516;13.294;2022-11-03T01:25:54;12.50;;;5.22;;
47089;SDS011;32840;52.516;13.294;2022-11-03T01:28:40;11.27;;;5.53;;
47089;SDS011;32840;52.516;13.294;2022-11-03T01:31:27;12.13;;;4.68;;
47089;SDS011;32840;52.516;13.294;2022-11-03T01:34:16;11.57;;;4.75;;
47089;SDS011;32840;52.516;13.294;2022-11-03T01:37:02;15.02;;;4.60;;
47089;SDS011;32840;52.516;13.294;2022-11-03T01:39:47;11.73;;;4.10;;
47089;SDS011;32840;52.516;13.294;2022-11-03T01:42:32;10.77;;;4.40;;
47089;SDS011;32840;52.516;13.294;2022-11-03T01:45:17;11.30;;;3.85;;
47089;SDS011;32840;52.516;13.294;2022-11-03T01:48:02;9.65;;;3.70;;
47089;SDS011;32840;52.516;13.294;2022-11-03T01:50:48;13.23;;;4.05;;
47089;SDS011;32840;52.516;13.294;2022-11-03T01:53:34;9.70;;;3.30;;
47089;SDS011;32840;52.516;13.294;2022-11-03T01:56:21;11.13;;;3.65;;
47089;SDS011;32840;52.516;13.294;2022-11-03T01:59:06;13.18;;;4.20;;
47089;SDS011;32840;52.516;13.294;2022-11-03T02:01:52;9.05;;;3.80;;
47089;SDS011;32840;52.516;13.294;2022-11-03T02:04:37;10.57;;;4.10;;
47089;SDS011;32840;52.516;13.294;2022-11-03T02:07:27;10.82;;;3.97;;
47089;SDS011;32840;52.516;13.294;2022-11-03T02:10:32;12.77;;;4.22;;
47089;SDS011;32840;52.516;13.294;2022-11-03T02:13:19;8.25;;;3.13;;
47089;SDS011;32840;52.516;13.294;2022-11-03T02:16:05;10.43;;;3.80;;
47089;SDS011;32840;52.516;13.294;2022-11-03T02:18:50;10.27;;;3.58;;
47089;SDS011;32840;52.516;13.294;2022-11-03T02:21:41;6.97;;;3.22;;
47089;SDS011;32840;52.516;13.294;2022-11-03T02:24:51;8.55;;;3.20;;
47089;SDS011;32840;52.516;13.294;2022-11-03T02:27:36;8.27;;;3.42;;
47089;SDS011;32840;52.516;13.294;2022-11-03T02:30:21;9.48;;;3.33;;
47089;SDS011;32840;52.516;13.294;2022-11-03T02:33:16;11.15;;;3.80;;
47089;SDS011;32840;52.516;13.294;2022-11-03T02:38:58;11.68;;;4.38;;
47089;SDS011;32840;52.516;13.294;2022-11-03T02:41:46;11.23;;;3.65;;
47089;SDS011;32840;52.516;13.294;2022-11-03T02:44:33;6.72;;;2.88;;
47089;SDS011;32840;52.516;13.294;2022-11-03T02:47:20;8.82;;;3.47;;
47089;SDS011;32840;52.516;13.294;2022-11-03T02:50:07;8.38;;;3.25;;
47089;SDS011;32840;52.516;13.294;2022-11-03T02:52:53;16.85;;;3.00;;
47089;SDS011;32840;52.516;13.294;2022-11-03T02:55:50;13.07;;;3.67;;
47089;SDS011;32840;52.516;13.294;2022-11-03T02:58:53;6.70;;;2.83;;
47089;SDS011;32840;52.516;13.294;2022-11-03T03:01:53;6.95;;;3.10;;
47089;SDS011;32840;52.516;13.294;2022-11-03T03:04:48;11.23;;;3.55;;
47089;SDS011;32840;52.516;13.294;2022-11-03T03:07:37;10.27;;;2.88;;
47089;SDS011;32840;52.516;13.294;2022-11-03T03:10:25;10.80;;;3.75;;
47089;SDS011;32840;52.516;13.294;2022-11-03T03:13:16;9.15;;;3.45;;
47089;SDS011;32840;52.516;13.294;2022-11-03T03:16:25;8.65;;;3.58;;
47089;SDS011;32840;52.516;13.294;2022-11-03T03:19:28;9.60;;;3.75;;
47089;SDS011;32840;52.516;13.294;2022-11-03T03:22:28;9.40;;;2.90;;
47089;SDS011;32840;52.516;13.294;2022-11-03T03:25:27;11.70;;;4.03;;
47089;SDS011;32840;52.516;13.294;2022-11-03T03:28:19;7.80;;;3.50;;
47089;SDS011;32840;52.516;13.294;2022-11-03T03:31:10;10.48;;;3.55;;
47089;SDS011;32840;52.516;13.294;2022-11-03T03:33:57;9.88;;;3.40;;
47089;SDS011;32840;52.516;13.294;2022-11-03T03:36:43;9.18;;;3.83;;
47089;SDS011;32840;52.516;13.294;2022-11-03T03:39:31;8.32;;;3.65;;
47089;SDS011;32840;52.516;13.294;2022-11-03T03:42:19;10.68;;;3.58;;
47089;SDS011;32840;52.516;13.294;2022-11-03T03:45:06;11.43;;;4.20;;
47089;SDS011;32840;52.516;13.294;2022-11-03T03:47:53;17.95;;;3.60;;
47089;SDS011;32840;52.516;13.294;2022-11-03T03:50:39;9.60;;;3.28;;
47089;SDS011;32840;52.516;13.294;2022-11-03T03:53:26;12.00;;;3.35;;
47089;SDS011;32840;52.516;13.294;2022-11-03T03:56:13;8.38;;;3.45;;
47089;SDS011;32840;52.516;13.294;2022-11-03T03:58:58;9.02;;;4.10;;
47089;SDS011;32840;52.516;13.294;2022-11-03T04:01:43;7.53;;;3.08;;
47089;SDS011;32840;52.516;13.294;2022-11-03T04:04:28;11.07;;;3.72;;
47089;SDS011;32840;52.516;13.294;2022-11-03T04:07:12;8.98;;;3.55;;
47089;SDS011;32840;52.516;13.294;2022-11-03T04:10:17;12.27;;;3.50;;
47089;SDS011;32840;52.516;13.294;2022-11-03T04:13:04;9.93;;;3.60;;
47089;SDS011;32840;52.516;13.294;2022-11-03T04:16:08;10.40;;;3.90;;
47089;SDS011;32840;52.516;13.294;2022-11-03T04:19:11;10.75;;;3.65;;
47089;SDS011;32840;52.516;13.294;2022-11-03T04:22:15;11.02;;;3.60;;
47089;SDS011;32840;52.516;13.294;2022-11-03T04:25:00;11.65;;;4.32;;
47089;SDS011;32840;52.516;13.294;2022-11-03T04:27:45;12.60;;;4.07;;
47089;SDS011;32840;52.516;13.294;2022-11-03T04:30:30;8.13;;;3.70;;
47089;SDS011;32840;52.516;13.294;2022-11-03T04:33:16;10.27;;;3.70;;
47089;SDS011;32840;52.516;13.294;2022-11-03T04:36:04;12.55;;;3.70;;
47089;SDS011;32840;52.516;13.294;2022-11-03T04:38:53;10.80;;;3.72;;
47089;SDS011;32840;52.516;13.294;2022-11-03T04:41:38;13.13;;;4.97;;
47089;SDS011;32840;52.516;13.294;2022-11-03T04:44:23;13.27;;;4.10;;
47089;SDS011;32840;52.516;13.294;2022-11-03T04:47:08;11.65;;;4.20;;
47089;SDS011;32840;52.516;13.294;2022-11-03T04:49:55;7.60;;;3.13;;
47089;SDS011;32840;52.516;13.294;2022-11-03T04:52:41;10.07;;;4.15;;
47089;SDS011;32840;52.516;13.294;2022-11-03T04:55:26;7.15;;;3.50;;
47089;SDS011;32840;52.516;13.294;2022-11-03T04:58:16;11.25;;;3.60;;
47089;SDS011;32840;52.516;13.294;2022-11-03T05:01:02;8.23;;;3.23;;
47089;SDS011;32840;52.516;13.294;2022-11-03T05:03:48;11.82;;;3.65;;
47089;SDS011;32840;52.516;13.294;2022-11-03T05:06:35;9.30;;;3.47;;
47089;SDS011;32840;52.516;13.294;2022-11-03T05:09:22;10.20;;;3.25;;
47089;SDS011;32840;52.516;13.294;2022-11-03T05:12:10;10.43;;;3.63;;
47089;SDS011;32840;52.516;13.294;2022-11-03T05:14:55;7.13;;;3.63;;
47089;SDS011;32840;52.516;13.294;2022-11-03T05:17:40;8.57;;;3.55;;
47089;SDS011;32840;52.516;13.294;2022-11-03T05:20:27;9.40;;;3.80;;
47089;SDS011;32840;52.516;13.294;2022-11-03T05:23:18;7.82;;;3.35;;
47089;SDS011;32840;52.516;13.294;2022-11-03T05:26:05;8.73;;;3.28;;
47089;SDS011;32840;52.516;13.294;2022-11-03T05:29:09;13.40;;;3.40;;
47089;SDS011;32840;52.516;13.294;2022-11-03T05:32:17;10.77;;;3.78;;
47089;SDS011;32840;52.516;13.294;2022-11-03T05:38:02;12.20;;;4.13;;
47089;SDS011;32840;52.516;13.294;2022-11-03T05:40:55;12.32;;;3.67;;
47089;SDS011;32840;52.516;13.294;2022-11-03T05:43:41;8.38;;;3.65;;
47089;SDS011;32840;52.516;13.294;2022-11-03T05:46:26;9.77;;;4.38;;
47089;SDS011;32840;52.516;13.294;2022-11-03T05:49:14;9.38;;;4.55;;
47089;SDS011;32840;52.516;13.294;2022-11-03T05:51:59;8.80;;;4.20;;
47089;SDS011;32840;52.516;13.294;2022-11-03T05:54:44;12.13;;;4.60;;
47089;SDS011;32840;52.516;13.294;2022-11-03T05:57:29;13.02;;;4.47;;
47089;SDS011;32840;52.516;13.294;2022-11-03T06:03:33;14.85;;;5.10;;
47089;SDS011;32840;52.516;13.294;2022-11-03T06:06:23;13.38;;;5.00;;
47089;SDS011;32840;52.516;13.294;2022-11-03T06:09:12;14.90;;;4.75;;
47089;SDS011;32840;52.516;13.294;2022-11-03T06:12:03;15.67;;;4.73;;
47089;SDS011;32840;52.516;13.294;2022-11-03T06:14:50;12.20;;;4.57;;
47089;SDS011;32840;52.516;13.294;2022-11-03T06:17:35;10.15;;;4.15;;
47089;SDS011;32840;52.516;13.294;2022-11-03T06:20:21;11.05;;;4.80;;
47089;SDS011;32840;52.516;13.294;2022-11-03T06:23:08;14.90;;;5.55;;
47089;SDS011;32840;52.516;13.294;2022-11-03T06:25:55;13.57;;;5.20;;
47089;SDS011;32840;52.516;13.294;2022-11-03T06:28:40;14.82;;;5.40;;
47089;SDS011;32840;52.516;13.294;2022-11-03T06:31:29;12.35;;;5.97;;
47089;SDS011;32840;52.516;13.294;2022-11-03T06:34:20;14.98;;;5.45;;
47089;SDS011;32840;52.516;13.294;2022-11-03T06:37:25;9.93;;;5.37;;
47089;SDS011;32840;52.516;13.294;2022-11-03T06:42:58;14.18;;;6.03;;
47089;SDS011;32840;52.516;13.294;2022-11-03T06:45:54;11.50;;;5.60;;
47089;SDS011;32840;52.516;13.294;2022-11-03T06:48:41;12.10;;;6.03;;
47089;SDS011;32840;52.516;13.294;2022-11-03T06:51:27;12.35;;;5.30;;
47089;SDS011;32840;52.516;13.294;2022-11-03T06:54:13;17.58;;;9.30;;
47089;SDS011;32840;52.516;13.294;2022-11-03T06:56:58;9.55;;;5.20;;
47089;SDS011;32840;52.516;13.294;2022-11-03T06:59:43;10.20;;;5.38;;
47089;SDS011;32840;52.516;13.294;2022-11-03T07:02:39;16.52;;;6.68;;
47089;SDS011;32840;52.516;13.294;2022-11-03T07:05:29;12.18;;;5.90;;
47089;SDS011;32840;52.516;13.294;2022-11-03T07:08:22;14.43;;;5.70;;
47089;SDS011;32840;52.516;13.294;2022-11-03T07:14:09;14.30;;;6.40;;
47089;SDS011;32840;52.516;13.294;2022-11-03T07:17:00;14.43;;;6.05;;
47089;SDS011;32840;52.516;13.294;2022-11-03T07:19:47;19.20;;;7.55;;
47089;SDS011;32840;52.516;13.294;2022-11-03T07:22:32;16.10;;;6.82;;
47089;SDS011;32840;52.516;13.294;2022-11-03T07:25:17;13.85;;;5.65;;
47089;SDS011;32840;52.516;13.294;2022-11-03T07:28:03;11.98;;;6.50;;
47089;SDS011;32840;52.516;13.294;2022-11-03T07:30:49;18.33;;;10.15;;
47089;SDS011;32840;52.516;13.294;2022-11-03T07:33:34;13.00;;;5.55;;
47089;SDS011;32840;52.516;13.294;2022-11-03T07:36:19;14.95;;;5.30;;
47089;SDS011;32840;52.516;13.294;2022-11-03T07:39:07;10.73;;;5.88;;
47089;SDS011;32840;52.516;13.294;2022-11-03T07:41:56;11.13;;;5.75;;
47089;SDS011;32840;52.516;13.294;2022-11-03T07:44:41;10.38;;;5.00;;
47089;SDS011;32840;52.516;13.294;2022-11-03T07:47:26;13.43;;;5.95;;
47089;SDS011;32840;52.516;13.294;2022-11-03T07:50:15;15.38;;;5.82;;
47089;SDS011;32840;52.516;13.294;2022-11-03T07:53:00;11.15;;;4.95;;
47089;SDS011;32840;52.516;13.294;2022-11-03T07:55:46;14.10;;;6.22;;
47089;SDS011;32840;52.516;13.294;2022-11-03T07:58:34;13.95;;;5.72;;
47089;SDS011;32840;52.516;13.294;2022-11-03T08:01:25;11.02;;;5.03;;
47089;SDS011;32840;52.516;13.294;2022-11-03T08:04:11;11.40;;;4.75;;
47089;SDS011;32840;52.516;13.294;2022-11-03T08:07:02;14.75;;;5.57;;
47089;SDS011;32840;52.516;13.294;2022-11-03T08:09:47;13.13;;;5.38;;
47089;SDS011;32840;52.516;13.294;2022-11-03T08:12:32;7.63;;;4.25;;
47089;SDS011;32840;52.516;13.294;2022-11-03T08:15:17;14.25;;;4.82;;
47089;SDS011;32840;52.516;13.294;2022-11-03T08:18:02;10.43;;;4.72;;
47089;SDS011;32840;52.516;13.294;2022-11-03T08:20:47;13.13;;;5.05;;
47089;SDS011;32840;52.516;13.294;2022-11-03T08:23:32;8.88;;;4.20;;
47089;SDS011;32840;52.516;13.294;2022-11-03T08:26:17;10.65;;;4.50;;
47089;SDS011;32840;52.516;13.294;2022-11-03T08:29:02;14.80;;;5.10;;
47089;SDS011;32840;52.516;13.294;2022-11-03T08:31:46;11.93;;;4.50;;
47089;SDS011;32840;52.516;13.294;2022-11-03T08:34:31;13.10;;;4.22;;
47089;SDS011;32840;52.516;13.294;2022-11-03T08:37:16;10.18;;;4.10;;
47089;SDS011;32840;52.516;13.294;2022-11-03T08:40:01;10.77;;;4.38;;
47089;SDS011;32840;52.516;13.294;2022-11-03T08:42:47;14.43;;;5.00;;
47089;SDS011;32840;52.516;13.294;2022-11-03T08:45:33;16.38;;;5.20;;
47089;SDS011;32840;52.516;13.294;2022-11-03T08:48:19;11.27;;;4.95;;
47089;SDS011;32840;52.516;13.294;2022-11-03T08:51:05;12.48;;;4.40;;
47089;SDS011;32840;52.516;13.294;2022-11-03T08:53:51;14.65;;;4.10;;
47089;SDS011;32840;52.516;13.294;2022-11-03T08:56:37;8.43;;;4.13;;
47089;SDS011;32840;52.516;13.294;2022-11-03T08:59:21;9.90;;;3.95;;
47089;SDS011;32840;52.516;13.294;2022-11-03T09:02:06;17.60;;;4.78;;
47089;SDS011;32840;52.516;13.294;2022-11-03T09:04:51;11.95;;;4.00;;
47089;SDS011;32840;52.516;13.294;2022-11-03T09:07:36;10.48;;;3.65;;
47089;SDS011;32840;52.516;13.294;2022-11-03T09:10:21;11.07;;;3.55;;
47089;SDS011;32840;52.516;13.294;2022-11-03T09:13:07;9.50;;;3.30;;
47089;SDS011;32840;52.516;13.294;2022-11-03T09:15:52;14.57;;;4.25;;
47089;SDS011;32840;52.516;13.294;2022-11-03T09:18:37;7.63;;;3.20;;
47089;SDS011;32840;52.516;13.294;2022-11-03T09:21:21;13.30;;;3.90;;
47089;SDS011;32840;52.516;13.294;2022-11-03T09:24:06;13.32;;;4.35;;
47089;SDS011;32840;52.516;13.294;2022-11-03T09:26:51;12.23;;;3.97;;
47089;SDS011;32840;52.516;13.294;2022-11-03T09:29:36;13.85;;;4.43;;
47089;SDS011;32840;52.516;13.294;2022-11-03T09:32:22;9.00;;;3.55;;
47089;SDS011;32840;52.516;13.294;2022-11-03T09:35:07;8.90;;;4.07;;
47089;SDS011;32840;52.516;13.294;2022-11-03T09:37:53;13.60;;;6.75;;
47089;SDS011;32840;52.516;13.294;2022-11-03T09:40:38;11.73;;;4.20;;
47089;SDS011;32840;52.516;13.294;2022-11-03T09:43:24;15.85;;;5.25;;
47089;SDS011;32840;52.516;13.294;2022-11-03T09:46:09;18.58;;;4.60;;
47089;SDS011;32840;52.516;13.294;2022-11-03T09:48:55;9.02;;;3.53;;
47089;SDS011;32840;52.516;13.294;2022-11-03T09:51:41;8.25;;;2.97;;
47089;SDS011;32840;52.516;13.294;2022-11-03T09:54:26;7.60;;;3.17;;
47089;SDS011;32840;52.516;13.294;2022-11-03T09:57:14;10.63;;;3.88;;
47089;SDS011;32840;52.516;13.294;2022-11-03T10:00:00;9.35;;;3.00;;
47089;SDS011;32840;52.516;13.294;2022-11-03T10:02:47;16.90;;;6.82;;
47089;SDS011;32840;52.516;13.294;2022-11-03T10:05:32;12.07;;;5.28;;
47089;SDS011;32840;52.516;13.294;2022-11-03T10:11:10;8.25;;;2.90;;
47089;SDS011;32840;52.516;13.294;2022-11-03T10:13:55;9.05;;;3.22;;
47089;SDS011;32840;52.516;13.294;2022-11-03T10:16:41;19.13;;;6.07;;
47089;SDS011;32840;52.516;13.294;2022-11-03T10:19:30;10.00;;;3.20;;
47089;SDS011;32840;52.516;13.294;2022-11-03T10:22:15;7.75;;;3.50;;
47089;SDS011;32840;52.516;13.294;2022-11-03T10:31:05;7.78;;;2.47;;
47089;SDS011;32840;52.516;13.294;2022-11-03T10:34:02;9.07;;;3.10;;
47089;SDS011;32840;52.516;13.294;2022-11-03T10:36:48;12.55;;;3.78;;
47089;SDS011;32840;52.516;13.294;2022-11-03T10:39:34;7.38;;;2.65;;
47089;SDS011;32840;52.516;13.294;2022-11-03T10:48:01;11.07;;;2.90;;
47089;SDS011;32840;52.516;13.294;2022-11-03T10:50:49;10.77;;;2.40;;
47089;SDS011;32840;52.516;13.294;2022-11-03T10:53:34;8.55;;;2.85;;
47089;SDS011;32840;52.516;13.294;2022-11-03T10:56:18;7.10;;;2.40;;
47089;SDS011;32840;52.516;13.294;2022-11-03T10:59:04;9.43;;;2.60;;
47089;SDS011;32840;52.516;13.294;2022-11-03T11:01:48;8.20;;;2.95;;
47089;SDS011;32840;52.516;13.294;2022-11-03T11:04:34;9.70;;;2.83;;
47089;SDS011;32840;52.516;13.294;2022-11-03T11:07:21;7.30;;;2.88;;
47089;SDS011;32840;52.516;13.294;2022-11-03T11:13:05;8.52;;;2.63;;
47089;SDS011;32840;52.516;13.294;2022-11-03T11:16:02;11.00;;;2.75;;
47089;SDS011;32840;52.516;13.294;2022-11-03T11:33:21;9.23;;;3.75;;
47089;SDS011;32840;52.516;13.294;2022-11-03T11:36:18;9.95;;;3.30;;
47089;SDS011;32840;52.516;13.294;2022-11-03T11:39:08;6.70;;;3.00;;
47089;SDS011;32840;52.516;13.294;2022-11-03T11:44:58;11.40;;;2.90;;
47089;SDS011;32840;52.516;13.294;2022-11-03T11:47:46;8.98;;;2.72;;
47089;SDS011;32840;52.516;13.294;2022-11-03T11:50:32;6.30;;;2.63;;
47089;SDS011;32840;52.516;13.294;2022-11-03T11:53:18;7.38;;;3.03;;
47089;SDS011;32840;52.516;13.294;2022-11-03T11:56:07;8.40;;;2.60;;
47089;SDS011;32840;52.516;13.294;2022-11-03T11:58:54;8.63;;;2.97;;
47089;SDS011;32840;52.516;13.294;2022-11-03T12:01:39;9.50;;;2.90;;
47089;SDS011;32840;52.516;13.294;2022-11-03T12:04:25;7.57;;;3.10;;
47089;SDS011;32840;52.516;13.294;2022-11-03T12:07:14;6.70;;;2.42;;
47089;SDS011;32840;52.516;13.294;2022-11-03T12:10:06;9.07;;;3.17;;
47089;SDS011;32840;52.516;13.294;2022-11-03T12:13:01;8.38;;;2.88;;
47089;SDS011;32840;52.516;13.294;2022-11-03T12:16:06;8.43;;;3.30;;
47089;SDS011;32840;52.516;13.294;2022-11-03T12:18:50;11.07;;;4.82;;
47089;SDS011;32840;52.516;13.294;2022-11-03T12:21:46;16.27;;;4.15;;
47089;SDS011;32840;52.516;13.294;2022-11-03T12:24:34;13.18;;;3.50;;
47089;SDS011;32840;52.516;13.294;2022-11-03T12:30:13;8.18;;;2.67;;
47089;SDS011;32840;52.516;13.294;2022-11-03T12:32:59;9.43;;;2.95;;
47089;SDS011;32840;52.516;13.294;2022-11-03T12:35:44;10.93;;;3.58;;
47089;SDS011;32840;52.516;13.294;2022-11-03T12:38:29;13.13;;;3.75;;
47089;SDS011;32840;52.516;13.294;2022-11-03T12:41:14;8.65;;;3.38;;
47089;SDS011;32840;52.516;13.294;2022-11-03T12:44:05;9.45;;;3.58;;
47089;SDS011;32840;52.516;13.294;2022-11-03T12:46:50;8.85;;;3.15;;
47089;SDS011;32840;52.516;13.294;2022-11-03T12:49:34;8.48;;;2.80;;
47089;SDS011;32840;52.516;13.294;2022-11-03T12:52:19;6.32;;;2.50;;
47089;SDS011;32840;52.516;13.294;2022-11-03T12:55:04;10.88;;;2.90;;
47089;SDS011;32840;52.516;13.294;2022-11-03T12:57:49;8.57;;;2.50;;
47089;SDS011;32840;52.516;13.294;2022-11-03T13:00:34;7.25;;;3.20;;
47089;SDS011;32840;52.516;13.294;2022-11-03T13:03:19;13.15;;;3.10;;
47089;SDS011;32840;52.516;13.294;2022-11-03T13:06:04;10.60;;;3.20;;
47089;SDS011;32840;52.516;13.294;2022-11-03T13:08:53;8.68;;;3.92;;
47089;SDS011;32840;52.516;13.294;2022-11-03T13:11:38;11.15;;;3.75;;
47089;SDS011;32840;52.516;13.294;2022-11-03T13:14:41;9.63;;;3.75;;
47089;SDS011;32840;52.516;13.294;2022-11-03T13:17:26;10.10;;;3.50;;
47089;SDS011;32840;52.516;13.294;2022-11-03T13:20:11;6.40;;;3.10;;
47089;SDS011;32840;52.516;13.294;2022-11-03T13:22:59;13.25;;;3.55;;
47089;SDS011;32840;52.516;13.294;2022-11-03T13:25:44;7.20;;;2.80;;
47089;SDS011;32840;52.516;13.294;2022-11-03T13:28:29;10.93;;;3.08;;
47089;SDS011;32840;52.516;13.294;2022-11-03T13:31:14;10.15;;;3.13;;
47089;SDS011;32840;52.516;13.294;2022-11-03T13:33:59;11.88;;;3.45;;
47089;SDS011;32840;52.516;13.294;2022-11-03T13:36:44;7.60;;;3.08;;
47089;SDS011;32840;52.516;13.294;2022-11-03T13:39:29;7.60;;;2.85;;
47089;SDS011;32840;52.516;13.294;2022-11-03T13:42:13;8.70;;;3.67;;
47089;SDS011;32840;52.516;13.294;2022-11-03T13:44:59;13.13;;;4.80;;
47089;SDS011;32840;52.516;13.294;2022-11-03T13:47:44;10.70;;;2.88;;
47089;SDS011;32840;52.516;13.294;2022-11-03T13:50:29;8.00;;;3.15;;
47089;SDS011;32840;52.516;13.294;2022-11-03T13:53:14;7.78;;;2.75;;
47089;SDS011;32840;52.516;13.294;2022-11-03T13:55:59;10.88;;;2.83;;
47089;SDS011;32840;52.516;13.294;2022-11-03T13:58:43;8.73;;;2.67;;
47089;SDS011;32840;52.516;13.294;2022-11-03T14:01:28;9.38;;;2.88;;
47089;SDS011;32840;52.516;13.294;2022-11-03T14:04:13;7.20;;;2.95;;
47089;SDS011;32840;52.516;13.294;2022-11-03T14:06:58;8.52;;;3.20;;
47089;SDS011;32840;52.516;13.294;2022-11-03T14:09:43;11.90;;;3.05;;
47089;SDS011;32840;52.516;13.294;2022-11-03T14:12:28;10.20;;;3.25;;
47089;SDS011;32840;52.516;13.294;2022-11-03T14:15:15;10.20;;;3.83;;
47089;SDS011;32840;52.516;13.294;2022-11-03T14:18:00;10.82;;;3.47;;
47089;SDS011;32840;52.516;13.294;2022-11-03T14:20:45;10.18;;;3.33;;
47089;SDS011;32840;52.516;13.294;2022-11-03T14:23:29;8.93;;;2.90;;
47089;SDS011;32840;52.516;13.294;2022-11-03T14:26:14;8.25;;;3.10;;
47089;SDS011;32840;52.516;13.294;2022-11-03T14:28:59;11.35;;;3.20;;
47089;SDS011;32840;52.516;13.294;2022-11-03T14:31:45;11.55;;;3.40;;
47089;SDS011;32840;52.516;13.294;2022-11-03T14:34:29;12.75;;;3.72;;
47089;SDS011;32840;52.516;13.294;2022-11-03T14:37:14;8.52;;;3.65;;
47089;SDS011;32840;52.516;13.294;2022-11-03T14:39:59;12.00;;;3.35;;
47089;SDS011;32840;52.516;13.294;2022-11-03T14:42:44;11.27;;;4.13;;
47089;SDS011;32840;52.516;13.294;2022-11-03T14:45:29;9.30;;;3.08;;
47089;SDS011;32840;52.516;13.294;2022-11-03T14:48:14;9.82;;;3.80;;
47089;SDS011;32840;52.516;13.294;2022-11-03T14:50:59;9.85;;;3.17;;
47089;SDS011;32840;52.516;13.294;2022-11-03T14:53:44;8.85;;;3.38;;
47089;SDS011;32840;52.516;13.294;2022-11-03T14:56:29;14.95;;;4.03;;
47089;SDS011;32840;52.516;13.294;2022-11-03T14:59:14;8.52;;;3.78;;
47089;SDS011;32840;52.516;13.294;2022-11-03T15:01:59;12.32;;;3.92;;
47089;SDS011;32840;52.516;13.294;2022-11-03T15:04:45;11.65;;;4.30;;
47089;SDS011;32840;52.516;13.294;2022-11-03T15:07:29;12.60;;;3.80;;
47089;SDS011;32840;52.516;13.294;2022-11-03T15:10:15;8.85;;;4.25;;
47089;SDS011;32840;52.516;13.294;2022-11-03T15:13:00;14.02;;;4.60;;
47089;SDS011;32840;52.516;13.294;2022-11-03T15:15:45;14.18;;;4.40;;
47089;SDS011;32840;52.516;13.294;2022-11-03T15:18:30;9.57;;;4.00;;
47089;SDS011;32840;52.516;13.294;2022-11-03T15:21:15;7.65;;;4.05;;
47089;SDS011;32840;52.516;13.294;2022-11-03T15:24:00;9.73;;;4.15;;
47089;SDS011;32840;52.516;13.294;2022-11-03T15:26:46;11.00;;;4.50;;
47089;SDS011;32840;52.516;13.294;2022-11-03T15:29:31;10.30;;;4.22;;
47089;SDS011;32840;52.516;13.294;2022-11-03T15:32:16;9.60;;;3.83;;
47089;SDS011;32840;52.516;13.294;2022-11-03T15:35:01;13.50;;;4.13;;
47089;SDS011;32840;52.516;13.294;2022-11-03T15:37:45;12.18;;;4.40;;
47089;SDS011;32840;52.516;13.294;2022-11-03T15:40:30;10.73;;;4.47;;
47089;SDS011;32840;52.516;13.294;2022-11-03T15:43:16;11.75;;;4.22;;
47089;SDS011;32840;52.516;13.294;2022-11-03T15:46:01;12.23;;;4.38;;
47089;SDS011;32840;52.516;13.294;2022-11-03T15:48:46;10.98;;;4.20;;
47089;SDS011;32840;52.516;13.294;2022-11-03T15:51:32;9.57;;;4.13;;
47089;SDS011;32840;52.516;13.294;2022-11-03T15:54:17;10.30;;;4.10;;
47089;SDS011;32840;52.516;13.294;2022-11-03T15:57:02;11.93;;;4.18;;
47089;SDS011;32840;52.516;13.294;2022-11-03T15:59:47;18.63;;;4.45;;
47089;SDS011;32840;52.516;13.294;2022-11-03T16:02:32;10.23;;;4.40;;
47089;SDS011;32840;52.516;13.294;2022-11-03T16:05:22;9.43;;;4.07;;
47089;SDS011;32840;52.516;13.294;2022-11-03T16:08:07;8.88;;;4.28;;
47089;SDS011;32840;52.516;13.294;2022-11-03T16:10:52;9.93;;;4.28;;
47089;SDS011;32840;52.516;13.294;2022-11-03T16:13:37;8.85;;;4.35;;
47089;SDS011;32840;52.516;13.294;2022-11-03T16:16:22;9.98;;;4.25;;
47089;SDS011;32840;52.516;13.294;2022-11-03T16:19:07;9.65;;;4.60;;
47089;SDS011;32840;52.516;13.294;2022-11-03T16:21:53;13.02;;;4.90;;
47089;SDS011;32840;52.516;13.294;2022-11-03T16:24:38;12.23;;;4.68;;
47089;SDS011;32840;52.516;13.294;2022-11-03T16:27:24;14.65;;;4.63;;
47089;SDS011;32840;52.516;13.294;2022-11-03T16:30:09;11.57;;;4.85;;
47089;SDS011;32840;52.516;13.294;2022-11-03T16:32:54;10.77;;;4.70;;
47089;SDS011;32840;52.516;13.294;2022-11-03T16:35:39;16.70;;;5.97;;
47089;SDS011;32840;52.516;13.294;2022-11-03T16:38:24;11.43;;;5.00;;
47089;SDS011;32840;52.516;13.294;2022-11-03T16:41:09;11.55;;;5.15;;
47089;SDS011;32840;52.516;13.294;2022-11-03T16:43:55;8.85;;;4.90;;
47089;SDS011;32840;52.516;13.294;2022-11-03T16:46:40;12.90;;;5.07;;
47089;SDS011;32840;52.516;13.294;2022-11-03T16:49:25;11.50;;;6.18;;
47089;SDS011;32840;52.516;13.294;2022-11-03T16:52:10;13.48;;;5.32;;
47089;SDS011;32840;52.516;13.294;2022-11-03T16:54:55;13.05;;;4.93;;
47089;SDS011;32840;52.516;13.294;2022-11-03T16:57:40;14.68;;;6.40;;
47089;SDS011;32840;52.516;13.294;2022-11-03T17:00:25;12.98;;;5.85;;
47089;SDS011;32840;52.516;13.294;2022-11-03T17:03:10;14.98;;;5.25;;
47089;SDS011;32840;52.516;13.294;2022-11-03T17:05:55;14.07;;;6.40;;
47089;SDS011;32840;52.516;13.294;2022-11-03T17:08:40;11.18;;;5.60;;
47089;SDS011;32840;52.516;13.294;2022-11-03T17:11:25;10.73;;;5.30;;
47089;SDS011;32840;52.516;13.294;2022-11-03T17:14:19;9.60;;;5.03;;
47089;SDS011;32840;52.516;13.294;2022-11-03T17:17:03;11.18;;;5.25;;